Pegaso — IAVP — position and weather

sailwx.info

Track history (hours):
 
Tides and Currents Weather Stations Pressure Air Temp Water Temp Dewpoint Dewpoint Depression Visibility Wind Speed Wind Dir Waves Ship Positions

Pegaso

Last reported at 2018-Jun-23 16:39 UTC. Time now 2018-Jun-24 05:13 UTC.
Position N 44°06' E 009°49'.

Length 6 m.

Type: Sailing vessel. MMSI: 247236500.

Date/timePositionNaut miles runAvg speedWind from/ knotsBaromVisibWave heightAir tempDewpointWater temp
2018-Jun-23 16:39N 44°06' E 009°49'0 0.0
2018-Jun-23 16:30N 44°06' E 009°49'0 0.4
2018-Jun-23 16:00N 44°06' E 009°50'1 1.6
2018-Jun-23 15:29N 44°05' E 009°50'0 0.2
2018-Jun-23 15:01N 44°05' E 009°50'0 0.8
2018-Jun-23 14:30N 44°06' E 009°50'1 2.1
2018-Jun-23 14:00N 44°05' E 009°51'3 5.2
2018-Jun-23 13:31N 44°02' E 009°51'2 4.5
2018-Jun-23 13:00N 44°02' E 009°48'1 1.7
2018-Jun-23 12:31N 44°03' E 009°48'2 4.2
2018-Jun-23 12:00N 44°01' E 009°50'2 3.7
2018-Jun-23 11:24N 44°03' E 009°52'2 4.8
2018-Jun-23 11:00N 44°05' E 009°50'1 2.8
2018-Jun-23 10:31N 44°06' E 009°49'0 0.0
2018-Jun-22 15:26N 44°06' E 009°49'0 0.2
2018-Jun-22 15:00N 44°06' E 009°49'0 0.0
2018-Jun-22 14:30N 44°06' E 009°49'0 0.1
2018-Jun-22 14:00N 44°06' E 009°49'0 0.1
2018-Jun-22 13:30N 44°06' E 009°49'0 0.2
2018-Jun-22 12:59N 44°06' E 009°49'  
2018-Jun-14 16:04N 44°06' E 009°50'0 0.0
2018-Jun-14 15:58N 44°06' E 009°50'1 1.5
2018-Jun-14 15:30N 44°06' E 009°50'3 5.7
2018-Jun-14 15:00N 44°03' E 009°52'3 5.6
2018-Jun-14 14:30N 44°01' E 009°55'2 3.8
2018-Jun-14 14:00N 43°59' E 009°55'2 4.2
2018-Jun-14 13:30N 43°58' E 009°53'2 3.2
2018-Jun-14 13:00N 43°57' E 009°52'1 2.8
2018-Jun-14 12:30N 43°56' E 009°50'1 2.9
2018-Jun-14 12:00N 43°55' E 009°48'2 3.4
2018-Jun-14 11:30N 43°54' E 009°46'2 3.9
2018-Jun-14 11:00N 43°55' E 009°44'2 4.0
2018-Jun-14 10:30N 43°55' E 009°41'1 2.4
2018-Jun-14 10:01N 43°55' E 009°39'1 2.4
2018-Jun-14 09:30N 43°55' E 009°38'1 1.3
2018-Jun-14 08:59N 43°55' E 009°37'1 2.0
2018-Jun-14 08:30N 43°55' E 009°36'1 1.3
2018-Jun-14 08:00N 43°56' E 009°35'2 3.5
2018-Jun-14 07:30N 43°57' E 009°33'3 5.1
2018-Jun-14 07:00N 43°55' E 009°31'2 4.5
2018-Jun-14 06:30N 43°55' E 009°28'2 3.9
2018-Jun-14 06:00N 43°56' E 009°25'2 4.8
2018-Jun-14 05:30N 43°55' E 009°22'3 6.1
2018-Jun-14 04:58N 43°54' E 009°18'3 6.1
2018-Jun-14 04:30N 43°54' E 009°14'2 4.0
2018-Jun-14 03:59N 43°53' E 009°11'2 3.7
2018-Jun-14 03:30N 43°53' E 009°09'2 4.0
2018-Jun-14 03:00N 43°52' E 009°06'2 3.8
2018-Jun-14 02:30N 43°52' E 009°04'1 1.2
2018-Jun-14 02:00N 43°51' E 009°03'1 1.8
2018-Jun-14 01:29N 43°51' E 009°02'1 2.6
2018-Jun-14 01:00N 43°51' E 008°60'2 4.4
2018-Jun-14 00:30N 43°51' E 008°57'2 3.9
2018-Jun-14 00:00N 43°50' E 008°54'2 3.7
2018-Jun-13 23:30N 43°50' E 008°52'2 3.3
2018-Jun-13 22:59N 43°50' E 008°49'1 2.9
2018-Jun-13 22:30N 43°49' E 008°48'1 2.0
2018-Jun-13 22:00N 43°49' E 008°46'1 1.8
2018-Jun-13 21:24N 43°48' E 008°45'  
Track history (hours):
 
Tides and Currents Weather Stations Pressure Air Temp Water Temp Dewpoint Dewpoint Depression Visibility Wind Speed Wind Dir Waves Ship Positions

Pegaso

Last reported at 2018-Jun-23 16:39 UTC. Time now 2018-Jun-24 05:13 UTC.
Position N 44°06' E 009°49'.

Length 6 m.

Type: Sailing vessel. MMSI: 247236500.

Date/timePositionNaut miles runAvg speedWind from/ knotsBaromVisibWave heightAir tempDewpointWater temp
2018-Jun-23 16:39N 44°06' E 009°49'0 0.0
2018-Jun-23 16:30N 44°06' E 009°49'0 0.4
2018-Jun-23 16:00N 44°06' E 009°50'1 1.6
2018-Jun-23 15:29N 44°05' E 009°50'0 0.2
2018-Jun-23 15:01N 44°05' E 009°50'0 0.8
2018-Jun-23 14:30N 44°06' E 009°50'1 2.1
2018-Jun-23 14:00N 44°05' E 009°51'3 5.2
2018-Jun-23 13:31N 44°02' E 009°51'2 4.5
2018-Jun-23 13:00N 44°02' E 009°48'1 1.7
2018-Jun-23 12:31N 44°03' E 009°48'2 4.2
2018-Jun-23 12:00N 44°01' E 009°50'2 3.7
2018-Jun-23 11:24N 44°03' E 009°52'2 4.8
2018-Jun-23 11:00N 44°05' E 009°50'1 2.8
2018-Jun-23 10:31N 44°06' E 009°49'0 0.0
2018-Jun-22 15:26N 44°06' E 009°49'0 0.2
2018-Jun-22 15:00N 44°06' E 009°49'0 0.0
2018-Jun-22 14:30N 44°06' E 009°49'0 0.1
2018-Jun-22 14:00N 44°06' E 009°49'0 0.1
2018-Jun-22 13:30N 44°06' E 009°49'0 0.2
2018-Jun-22 12:59N 44°06' E 009°49'  
2018-Jun-14 16:04N 44°06' E 009°50'0 0.0
2018-Jun-14 15:58N 44°06' E 009°50'1 1.5
2018-Jun-14 15:30N 44°06' E 009°50'3 5.7
2018-Jun-14 15:00N 44°03' E 009°52'3 5.6
2018-Jun-14 14:30N 44°01' E 009°55'2 3.8
2018-Jun-14 14:00N 43°59' E 009°55'2 4.2
2018-Jun-14 13:30N 43°58' E 009°53'2 3.2
2018-Jun-14 13:00N 43°57' E 009°52'1 2.8
2018-Jun-14 12:30N 43°56' E 009°50'1 2.9
2018-Jun-14 12:00N 43°55' E 009°48'2 3.4
2018-Jun-14 11:30N 43°54' E 009°46'2 3.9
2018-Jun-14 11:00N 43°55' E 009°44'2 4.0
2018-Jun-14 10:30N 43°55' E 009°41'1 2.4
2018-Jun-14 10:01N 43°55' E 009°39'1 2.4
2018-Jun-14 09:30N 43°55' E 009°38'1 1.3
2018-Jun-14 08:59N 43°55' E 009°37'1 2.0
2018-Jun-14 08:30N 43°55' E 009°36'1 1.3
2018-Jun-14 08:00N 43°56' E 009°35'2 3.5
2018-Jun-14 07:30N 43°57' E 009°33'3 5.1
2018-Jun-14 07:00N 43°55' E 009°31'2 4.5
2018-Jun-14 06:30N 43°55' E 009°28'2 3.9
2018-Jun-14 06:00N 43°56' E 009°25'2 4.8
2018-Jun-14 05:30N 43°55' E 009°22'3 6.1
2018-Jun-14 04:58N 43°54' E 009°18'3 6.1
2018-Jun-14 04:30N 43°54' E 009°14'2 4.0
2018-Jun-14 03:59N 43°53' E 009°11'2 3.7
2018-Jun-14 03:30N 43°53' E 009°09'2 4.0
2018-Jun-14 03:00N 43°52' E 009°06'2 3.8
2018-Jun-14 02:30N 43°52' E 009°04'1 1.2
2018-Jun-14 02:00N 43°51' E 009°03'1 1.8
2018-Jun-14 01:29N 43°51' E 009°02'1 2.6
2018-Jun-14 01:00N 43°51' E 008°60'2 4.4
2018-Jun-14 00:30N 43°51' E 008°57'2 3.9
2018-Jun-14 00:00N 43°50' E 008°54'2 3.7
2018-Jun-13 23:30N 43°50' E 008°52'2 3.3
2018-Jun-13 22:59N 43°50' E 008°49'1 2.9
2018-Jun-13 22:30N 43°49' E 008°48'1 2.0
2018-Jun-13 22:00N 43°49' E 008°46'1 1.8
2018-Jun-13 21:24N 43°48' E 008°45'  

Dump ship's entire track history